createdAt,value
2019-03-17T00:01:21.213Z,95695.09
2019-03-17T00:03:53.411Z,95699.93
2019-03-17T00:06:24.861Z,95693.11
2019-03-17T00:08:56.334Z,95687.36
2019-03-17T00:11:27.706Z,95685.93
2019-03-17T00:13:58.699Z,95687.22
2019-03-17T00:16:30.734Z,95689.77
2019-03-17T00:19:02.901Z,95684.45
2019-03-17T00:21:35.467Z,95680.59
2019-03-17T00:24:06.445Z,95673.64
2019-03-17T00:26:37.991Z,95676.66
2019-03-17T00:29:09.245Z,95679.42
2019-03-17T00:31:40.559Z,95673.30
2019-03-17T00:34:11.655Z,95672.56
2019-03-17T00:36:42.774Z,95668.54
2019-03-17T00:39:14.495Z,95668.03
2019-03-17T00:41:45.582Z,95668.22
2019-03-17T00:44:16.927Z,95664.89
2019-03-17T00:46:48.209Z,95660.70
2019-03-17T00:49:19.606Z,95662.10
2019-03-17T00:51:50.580Z,95658.53
2019-03-17T00:54:21.575Z,95652.45
2019-03-17T00:56:52.927Z,95652.99
2019-03-17T00:59:24.725Z,95652.61
2019-03-17T01:01:55.751Z,95649.78
2019-03-17T01:04:27.069Z,95647.14
2019-03-17T01:06:58.118Z,95640.64
2019-03-17T01:09:29.485Z,95636.69
2019-03-17T01:12:00.837Z,95637.08
2019-03-17T01:14:31.860Z,95625.91
2019-03-17T01:17:03.105Z,95617.55
2019-03-17T01:19:35.398Z,95610.26
2019-03-17T01:22:06.462Z,95609.71
2019-03-17T01:24:37.774Z,95608.59
2019-03-17T01:27:09.760Z,95596.66
2019-03-17T01:29:41.413Z,95591.36
2019-03-17T01:32:12.763Z,95593.37
2019-03-17T01:34:43.742Z,95580.47
2019-03-17T01:37:14.716Z,95585.73
2019-03-17T01:39:45.791Z,95575.00
2019-03-17T01:42:18.541Z,95584.23
2019-03-17T01:44:49.993Z,95580.27
2019-03-17T01:47:22.273Z,95572.92
2019-03-17T01:49:53.599Z,95574.59
2019-03-17T01:52:24.988Z,95569.85
2019-03-17T01:54:56.290Z,95567.11
2019-03-17T01:57:28.206Z,95565.56
2019-03-17T01:59:59.621Z,95556.62
2019-03-17T02:02:31.208Z,95551.66
2019-03-17T02:05:02.201Z,95549.14
2019-03-17T02:07:34.106Z,95543.64
2019-03-17T02:10:05.944Z,95547.16
2019-03-17T02:12:37.478Z,95539.77
2019-03-17T02:15:09.544Z,95533.69
2019-03-17T02:17:40.992Z,95529.39
2019-03-17T02:20:12.373Z,95528.69
2019-03-17T02:22:43.620Z,95526.76
2019-03-17T02:25:14.611Z,95527.23
2019-03-17T02:27:45.875Z,95530.83
2019-03-17T02:30:17.307Z,95526.91
2019-03-17T02:32:48.574Z,95526.72
2019-03-17T02:35:19.834Z,95522.98
2019-03-17T02:37:51.186Z,95523.77
2019-03-17T02:40:22.902Z,95522.30
2019-03-17T02:42:53.915Z,95524.12
2019-03-17T02:45:25.031Z,95518.39
2019-03-17T02:47:56.353Z,95519.71
2019-03-17T02:50:28.319Z,95514.95
2019-03-17T02:52:59.645Z,95512.67
2019-03-17T02:55:31.142Z,95515.06
2019-03-17T02:58:02.224Z,95505.63
2019-03-17T03:00:33.506Z,95509.73
2019-03-17T03:03:05.809Z,95513.33
2019-03-17T03:05:53.545Z,95507.17
2019-03-17T03:08:09.839Z,95504.08
2019-03-17T03:10:40.850Z,95502.80
2019-03-17T03:13:11.901Z,95497.41
2019-03-17T03:15:43.236Z,95502.97
2019-03-17T03:18:14.565Z,95498.91
2019-03-17T03:20:46.033Z,95493.03
2019-03-17T03:23:17.720Z,95490.19
2019-03-17T03:25:49.363Z,95483.38
2019-03-17T03:28:20.672Z,95481.25
2019-03-17T03:30:51.673Z,95476.52
2019-03-17T03:33:23.107Z,95480.97
2019-03-17T03:36:09.392Z,95473.83
2019-03-17T03:38:27.041Z,95469.38
2019-03-17T03:40:58.342Z,95460.44
2019-03-17T03:43:29.305Z,95460.56
2019-03-17T03:46:00.385Z,95450.86
2019-03-17T03:48:31.507Z,95453.48
2019-03-17T03:51:02.947Z,95449.11
2019-03-17T03:53:34.602Z,95448.10
2019-03-17T03:56:05.868Z,95450.16
2019-03-17T03:58:36.924Z,95446.59
2019-03-17T04:01:08.226Z,95454.56
2019-03-17T04:03:39.954Z,95442.77
2019-03-17T04:06:25.270Z,95452.21
2019-03-17T04:08:43.979Z,95453.14
2019-03-17T04:11:15.293Z,95447.48
2019-03-17T04:13:47.525Z,95444.09
2019-03-17T04:16:18.790Z,95443.23
2019-03-17T04:18:50.094Z,95436.23
2019-03-17T04:21:21.992Z,95434.49
2019-03-17T04:23:53.294Z,95435.50
2019-03-17T04:26:25.912Z,95422.19
2019-03-17T04:28:56.974Z,95424.12
2019-03-17T04:31:28.024Z,95421.68
2019-03-17T04:33:59.004Z,95421.02
2019-03-17T04:36:40.063Z,95419.16
2019-03-17T04:39:04.698Z,95423.73
2019-03-17T04:41:36.602Z,95420.95
2019-03-17T04:44:20.030Z,95408.36
2019-03-17T04:46:40.577Z,95407.73
2019-03-17T04:49:12.381Z,95405.01
2019-03-17T04:51:44.363Z,95401.03
2019-03-17T04:54:15.395Z,95410.00
2019-03-17T04:56:46.891Z,95404.47
2019-03-17T04:59:17.938Z,95403.36
2019-03-17T05:01:48.915Z,95405.22
2019-03-17T05:04:19.944Z,95402.72
2019-03-17T05:06:52.909Z,95409.00
2019-03-17T05:09:25.607Z,95406.67
2019-03-17T05:11:56.953Z,95416.76
2019-03-17T05:14:28.416Z,95414.09
2019-03-17T05:16:59.457Z,95408.80
2019-03-17T05:19:30.777Z,95409.27
2019-03-17T05:22:01.765Z,95418.31
2019-03-17T05:24:32.983Z,95411.39
2019-03-17T05:27:04.208Z,95413.31
2019-03-17T05:29:42.558Z,95414.50
2019-03-17T05:32:13.956Z,95414.56
2019-03-17T05:34:45.470Z,95413.25
2019-03-17T05:37:16.752Z,95414.53
2019-03-17T05:39:48.032Z,95416.79
2019-03-17T05:42:19.483Z,95410.98
2019-03-17T05:44:50.459Z,95406.84
2019-03-17T05:47:21.757Z,95405.05
2019-03-17T05:49:53.726Z,95401.84
2019-03-17T05:52:25.886Z,95405.55
2019-03-17T05:54:57.238Z,95394.84
2019-03-17T05:57:28.587Z,95397.25
2019-03-17T05:59:59.798Z,95404.00
2019-03-17T06:02:31.090Z,95398.56
2019-03-17T06:05:02.748Z,95402.84
2019-03-17T06:07:34.266Z,95394.41
2019-03-17T06:10:07.290Z,95395.72
2019-03-17T06:12:38.346Z,95397.67
2019-03-17T06:15:10.272Z,95388.03
2019-03-17T06:17:41.437Z,95401.60
2019-03-17T06:20:12.868Z,95406.19
2019-03-17T06:22:43.884Z,95406.39
2019-03-17T06:25:15.024Z,95407.14
2019-03-17T06:27:46.127Z,95407.44
2019-03-17T06:30:17.185Z,95413.78
2019-03-17T06:32:48.497Z,95413.22
2019-03-17T06:35:19.846Z,95410.72
2019-03-17T06:37:51.411Z,95411.39
2019-03-17T06:40:22.506Z,95414.27
2019-03-17T06:42:54.048Z,95422.67
2019-03-17T06:45:25.828Z,95420.27
2019-03-17T06:47:57.428Z,95426.55
2019-03-17T06:50:28.477Z,95429.22
2019-03-17T06:52:59.948Z,95429.25
2019-03-17T06:55:31.277Z,95430.13
2019-03-17T06:58:02.892Z,95430.97
2019-03-17T07:00:34.205Z,95425.38
2019-03-17T07:03:06.339Z,95436.09
2019-03-17T07:05:38.064Z,95432.33
2019-03-17T07:08:09.738Z,95442.14
2019-03-17T07:10:40.744Z,95443.87
2019-03-17T07:13:11.801Z,95446.05
2019-03-17T07:15:42.932Z,95444.58
2019-03-17T07:18:14.305Z,95446.78
2019-03-17T07:20:45.441Z,95448.91
2019-03-17T07:23:16.759Z,95453.09
2019-03-17T07:25:48.043Z,95454.98
2019-03-17T07:28:19.613Z,95453.50
2019-03-17T07:30:50.602Z,95452.20
2019-03-17T07:33:22.852Z,95447.22
2019-03-17T07:35:54.596Z,95457.09
2019-03-17T07:38:36.535Z,95452.46
2019-03-17T07:41:08.617Z,95458.34
2019-03-17T07:43:39.613Z,95454.65
2019-03-17T07:46:10.613Z,95454.22
2019-03-17T07:48:41.917Z,95449.07
2019-03-17T07:51:12.909Z,95451.00
2019-03-17T07:53:43.916Z,95447.16
2019-03-17T07:56:14.901Z,95444.63
2019-03-17T07:58:46.388Z,95444.42
2019-03-17T08:01:17.702Z,95447.92
2019-03-17T08:03:49.148Z,95438.98
2019-03-17T08:06:20.142Z,95440.86
2019-03-17T08:08:51.440Z,95436.11
2019-03-17T08:11:22.957Z,95429.80
2019-03-17T08:13:54.826Z,95428.76
2019-03-17T08:16:29.841Z,95429.92
2019-03-17T08:19:01.110Z,95427.28
2019-03-17T08:21:32.082Z,95423.36
2019-03-17T08:24:03.116Z,95424.94
2019-03-17T08:26:35.799Z,95432.16
2019-03-17T08:29:43.543Z,95428.19
2019-03-17T08:32:14.847Z,95432.16
2019-03-17T08:34:46.283Z,95435.87
2019-03-17T08:37:17.296Z,95431.64
2019-03-17T08:39:48.939Z,95431.12
2019-03-17T08:42:20.537Z,95431.12
2019-03-17T08:44:52.085Z,95426.13
2019-03-17T08:47:23.133Z,95427.21
2019-03-17T08:49:54.156Z,95433.30
2019-03-17T08:52:29.113Z,95421.36
2019-03-17T08:55:01.889Z,95426.12
2019-03-17T08:57:37.039Z,95421.34
2019-03-17T09:00:10.556Z,95436.71
2019-03-17T09:02:42.889Z,95422.37
2019-03-17T09:05:16.006Z,95432.45
2019-03-17T09:07:48.563Z,95426.88
2019-03-17T09:10:20.499Z,95430.04
2019-03-17T09:12:51.568Z,95428.42
2019-03-17T09:15:22.877Z,95430.28
2019-03-17T09:17:54.574Z,95422.09
2019-03-17T09:20:26.165Z,95422.09
2019-03-17T09:22:57.156Z,95420.41
2019-03-17T09:25:28.352Z,95415.61
2019-03-17T09:27:59.810Z,95416.38
2019-03-17T09:30:30.829Z,95420.59
2019-03-17T09:33:02.122Z,95420.06
2019-03-17T09:35:33.166Z,95423.53
2019-03-17T09:38:04.908Z,95423.50
2019-03-17T09:40:36.882Z,95434.00
2019-03-17T09:43:10.772Z,95425.24
2019-03-17T09:45:53.726Z,95422.84
2019-03-17T09:48:25.092Z,95419.17
2019-03-17T09:50:56.069Z,95416.03
2019-03-17T09:53:28.612Z,95401.88
2019-03-17T09:56:00.335Z,95405.55
2019-03-17T09:58:32.811Z,95418.08
2019-03-17T10:01:03.946Z,95403.38
2019-03-17T10:03:35.224Z,95393.03
2019-03-17T10:06:06.781Z,95409.22
2019-03-17T10:08:37.824Z,95412.40
2019-03-17T10:11:10.768Z,95404.33
2019-03-17T10:13:42.294Z,95407.48
2019-03-17T10:16:13.889Z,95416.42
2019-03-17T10:18:46.677Z,95391.69
2019-03-17T10:21:18.730Z,95387.76
2019-03-17T10:23:49.800Z,95395.74
2019-03-17T10:26:20.910Z,95377.17
2019-03-17T10:28:51.932Z,95379.78
2019-03-17T10:31:25.385Z,95378.09
2019-03-17T10:33:56.524Z,95388.81
2019-03-17T10:36:27.530Z,95370.94
2019-03-17T10:38:58.583Z,95368.56
2019-03-17T10:41:29.780Z,95368.86
2019-03-17T10:44:00.999Z,95353.31
2019-03-17T10:46:35.609Z,95359.35
2019-03-17T10:49:11.461Z,95358.73
2019-03-17T10:51:42.838Z,95350.63
2019-03-17T10:54:15.113Z,95362.02
2019-03-17T10:56:47.192Z,95338.13
2019-03-17T10:59:18.995Z,95342.98
2019-03-17T11:01:50.041Z,95350.25
2019-03-17T11:04:21.356Z,95344.09
2019-03-17T11:06:54.852Z,95351.14
2019-03-17T11:09:35.209Z,95358.73
2019-03-17T11:12:06.700Z,95374.52
2019-03-17T11:14:38.489Z,95355.67
2019-03-17T11:17:09.485Z,95354.45
2019-03-17T11:19:40.481Z,95364.02
2019-03-17T11:22:11.505Z,95369.98
2019-03-17T11:24:42.516Z,95354.91
2019-03-17T11:27:13.602Z,95360.61
2019-03-17T11:29:47.182Z,95358.98
2019-03-17T11:32:18.709Z,95358.97
2019-03-17T11:34:50.166Z,95370.78
2019-03-17T11:37:23.670Z,95357.78
2019-03-17T11:39:54.974Z,95372.48
2019-03-17T11:42:29.563Z,95368.02
2019-03-17T11:45:01.137Z,95393.55
2019-03-17T11:47:32.823Z,95387.39
2019-03-17T11:50:03.958Z,95391.78
2019-03-17T11:52:40.484Z,95380.70
2019-03-17T11:55:12.069Z,95379.48
2019-03-17T11:57:43.428Z,95390.61
2019-03-17T12:00:16.770Z,95391.98
2019-03-17T12:02:54.501Z,95385.63
2019-03-17T12:05:25.797Z,95387.24
2019-03-17T12:08:01.914Z,95390.14
2019-03-17T12:10:33.265Z,95370.39
2019-03-17T12:13:04.313Z,95376.55
2019-03-17T12:15:35.533Z,95381.35
2019-03-17T12:18:06.815Z,95390.59
2019-03-17T12:20:37.804Z,95393.31
2019-03-17T12:23:08.849Z,95385.66
2019-03-17T12:25:40.689Z,95395.20
2019-03-17T12:28:11.847Z,95397.06
2019-03-17T12:30:43.179Z,95403.67
2019-03-17T12:33:14.429Z,95412.20
2019-03-17T12:35:46.375Z,95409.91
2019-03-17T12:38:18.898Z,95421.33
2019-03-17T12:40:50.000Z,95419.50
2019-03-17T12:43:21.065Z,95427.44
2019-03-17T12:45:52.393Z,95424.48
2019-03-17T12:48:23.641Z,95421.88
2019-03-17T12:50:54.888Z,95431.70
2019-03-17T12:53:25.946Z,95427.72
2019-03-17T12:55:56.999Z,95428.52
2019-03-17T12:58:28.302Z,95442.59
2019-03-17T13:00:59.291Z,95447.88
2019-03-17T13:03:30.319Z,95447.58
2019-03-17T13:06:01.660Z,95447.83
2019-03-17T13:08:33.027Z,95451.77
2019-03-17T13:11:04.035Z,95458.42
2019-03-17T13:13:35.385Z,95471.67
2019-03-17T13:16:07.425Z,95468.21
2019-03-17T13:18:38.696Z,95475.09
2019-03-17T13:21:10.519Z,95476.41
2019-03-17T13:23:41.799Z,95480.08
2019-03-17T13:26:13.396Z,95504.41
2019-03-17T13:28:44.603Z,95527.11
2019-03-17T13:31:15.852Z,95535.13
2019-03-17T13:33:47.810Z,95565.85
2019-03-17T13:36:19.062Z,95570.96
2019-03-17T13:38:50.613Z,95575.66
2019-03-17T13:41:21.596Z,95604.45
2019-03-17T13:43:53.462Z,95618.33
2019-03-17T13:46:24.575Z,95625.62
2019-03-17T13:48:56.204Z,95634.28
2019-03-17T13:51:27.244Z,95655.33
2019-03-17T13:53:58.803Z,95652.36
2019-03-17T13:56:29.885Z,95652.30
2019-03-17T13:59:01.211Z,95678.52
2019-03-17T14:01:32.597Z,95690.66
2019-03-17T14:04:03.873Z,95704.48
2019-03-17T14:06:35.352Z,95713.58
2019-03-17T14:09:07.825Z,95728.28
2019-03-17T14:11:39.165Z,95749.50
2019-03-17T14:14:10.893Z,95746.53
2019-03-17T14:16:42.404Z,95724.19
2019-03-17T14:19:13.904Z,95734.02
2019-03-17T14:21:45.269Z,95739.97
2019-03-17T14:24:17.025Z,95751.58
2019-03-17T14:26:48.408Z,95754.20
2019-03-17T14:29:20.838Z,95757.31
2019-03-17T14:31:52.038Z,95764.96
2019-03-17T14:34:23.053Z,95771.66
2019-03-17T14:36:54.131Z,95775.38
2019-03-17T14:39:25.740Z,95783.49
2019-03-17T14:41:57.175Z,95781.75
2019-03-17T14:44:28.564Z,95771.53
2019-03-17T14:46:59.875Z,95771.83
2019-03-17T14:49:31.644Z,95774.59
2019-03-17T14:52:02.619Z,95783.92
2019-03-17T14:54:34.369Z,95791.91
2019-03-17T14:57:05.916Z,95790.45
2019-03-17T14:59:57.107Z,95785.11
2019-03-17T15:02:28.861Z,95797.42
2019-03-17T15:05:00.374Z,95793.33
2019-03-17T15:07:31.390Z,95787.27
2019-03-17T15:10:02.533Z,95789.48
2019-03-17T15:12:33.921Z,95780.65
2019-03-17T15:15:05.989Z,95781.69
2019-03-17T15:17:37.917Z,95779.60
2019-03-17T15:20:12.114Z,95781.86
2019-03-17T15:22:44.698Z,95777.45
2019-03-17T15:25:16.866Z,95776.70
2019-03-17T15:27:48.019Z,95779.30
2019-03-17T15:30:22.667Z,95771.58
2019-03-17T15:32:54.084Z,95775.25
2019-03-17T15:35:25.063Z,95769.45
2019-03-17T15:37:56.332Z,95767.98
2019-03-17T15:40:27.697Z,95765.83
2019-03-17T15:42:59.495Z,95795.26
2019-03-17T15:45:30.714Z,95811.73
2019-03-17T15:48:04.096Z,95814.32
2019-03-17T15:50:35.597Z,95808.41
2019-03-17T15:53:06.861Z,95806.17
2019-03-17T15:55:38.087Z,95815.92
2019-03-17T15:58:09.084Z,95832.20
2019-03-17T16:00:40.975Z,95848.84
2019-03-17T16:03:13.283Z,95856.52
2019-03-17T16:05:44.487Z,95863.63
2019-03-17T16:08:15.629Z,95864.41
2019-03-17T16:10:46.607Z,95874.90
2019-03-17T16:13:17.887Z,95866.88
2019-03-17T16:15:48.915Z,95862.45
2019-03-17T16:18:19.972Z,95864.30
2019-03-17T16:20:51.033Z,95854.97
2019-03-17T16:23:22.112Z,95868.84
2019-03-17T16:25:53.422Z,95869.13
2019-03-17T16:28:24.791Z,95873.77
2019-03-17T16:30:56.328Z,95869.12
2019-03-17T16:33:27.306Z,95866.07
2019-03-17T16:35:59.463Z,95862.28
2019-03-17T16:38:30.496Z,95862.58
2019-03-17T16:41:01.719Z,95866.22
2019-03-17T16:43:32.696Z,95873.30
2019-03-17T16:46:04.105Z,95874.95
2019-03-17T16:48:35.150Z,95878.77
2019-03-17T16:51:06.590Z,95890.58
2019-03-17T16:53:37.625Z,95896.05
2019-03-17T16:56:08.808Z,95890.36
2019-03-17T16:58:41.941Z,95890.00
2019-03-17T17:01:13.480Z,95893.70
2019-03-17T17:03:44.499Z,95899.17
2019-03-17T17:06:15.519Z,95895.66
2019-03-17T17:08:47.373Z,95910.11
2019-03-17T17:11:18.401Z,95914.93
2019-03-17T17:13:50.780Z,95920.81
2019-03-17T17:16:22.084Z,95929.88
2019-03-17T17:18:53.179Z,95926.95
2019-03-17T17:21:24.184Z,95930.48
2019-03-17T17:23:55.165Z,95946.91
2019-03-17T17:26:36.693Z,95962.97
2019-03-17T17:28:59.998Z,95969.48
2019-03-17T17:31:31.299Z,95968.91
2019-03-17T17:34:03.659Z,95969.48
2019-03-17T17:36:35.359Z,95975.80
2019-03-17T17:39:09.580Z,95976.34
2019-03-17T17:41:40.736Z,95977.50
2019-03-17T17:44:12.343Z,95981.97
2019-03-17T17:46:43.636Z,95988.06
2019-03-17T17:49:14.990Z,95999.14
2019-03-17T17:51:46.325Z,96001.64
2019-03-17T17:54:17.364Z,95997.09
2019-03-17T17:56:48.703Z,95983.61
2019-03-17T17:59:19.963Z,95977.71
2019-03-17T18:01:51.778Z,95994.14
2019-03-17T18:04:23.198Z,96016.42
2019-03-17T18:06:54.514Z,96025.16
2019-03-17T18:09:25.994Z,96024.72
2019-03-17T18:11:57.552Z,96024.75
2019-03-17T18:14:33.424Z,96022.31
2019-03-17T18:17:15.800Z,96035.72
2019-03-17T18:19:48.042Z,96058.55
2019-03-17T18:22:19.443Z,96059.41
2019-03-17T18:24:50.503Z,96052.46
2019-03-17T18:27:21.939Z,96070.76
2019-03-17T18:29:57.662Z,96082.06
2019-03-17T18:32:29.236Z,96092.48
2019-03-17T18:35:02.020Z,96089.69
2019-03-17T18:37:32.986Z,96085.77
2019-03-17T18:40:04.924Z,96086.64
2019-03-17T18:42:36.237Z,96083.02
2019-03-17T18:45:07.954Z,96080.42
2019-03-17T18:47:40.758Z,96083.81
2019-03-17T18:50:19.958Z,96079.09
2019-03-17T18:52:46.129Z,96077.07
2019-03-17T18:55:19.658Z,96090.97
2019-03-17T18:57:50.702Z,96098.13
2019-03-17T19:00:21.947Z,96113.55
2019-03-17T19:02:53.032Z,96122.30
2019-03-17T19:05:24.233Z,96150.91
2019-03-17T19:07:55.225Z,96147.17
2019-03-17T19:10:26.589Z,96147.25
2019-03-17T19:12:57.828Z,96125.81
2019-03-17T19:15:28.811Z,96124.13
2019-03-17T19:18:00.252Z,96115.27
2019-03-17T19:20:51.096Z,96120.67
2019-03-17T19:23:22.695Z,96123.98
2019-03-17T19:25:54.146Z,96129.48
2019-03-17T19:28:31.570Z,96144.84
2019-03-17T19:31:02.879Z,96154.53
2019-03-17T19:33:36.222Z,96167.52
2019-03-17T19:36:06.697Z,96172.58
2019-03-17T19:38:37.678Z,96184.46
2019-03-17T19:41:08.627Z,96184.75
2019-03-17T19:43:39.605Z,96184.95
2019-03-17T19:46:10.665Z,96183.25
2019-03-17T19:48:42.058Z,96178.32
2019-03-17T19:51:13.062Z,96191.81
2019-03-17T19:53:44.505Z,96200.06
2019-03-17T19:56:15.494Z,96194.72
2019-03-17T19:58:46.802Z,96187.88
2019-03-17T20:01:17.920Z,96196.95
2019-03-17T20:03:48.979Z,96212.23
2019-03-17T20:06:20.520Z,96217.52
2019-03-17T20:08:51.497Z,96227.17
2019-03-17T20:11:25.597Z,96238.41
2019-03-17T20:13:55.866Z,96233.33
2019-03-17T20:16:27.139Z,96234.19
2019-03-17T20:18:58.219Z,96222.02
2019-03-17T20:21:29.521Z,96224.65
2019-03-17T20:24:01.760Z,96234.69
2019-03-17T20:26:33.426Z,96239.58
2019-03-17T20:29:04.470Z,96233.52
2019-03-17T20:31:35.549Z,96238.77
2019-03-17T20:34:07.212Z,96260.95
2019-03-17T20:36:39.472Z,96259.80
2019-03-17T20:39:10.439Z,96261.67
2019-03-17T20:41:41.469Z,96275.08
2019-03-17T20:44:12.798Z,96263.29
2019-03-17T20:46:44.452Z,96268.12
2019-03-17T20:49:15.965Z,96264.19
2019-03-17T20:51:47.266Z,96275.70
2019-03-17T20:54:20.252Z,96266.41
2019-03-17T20:56:51.766Z,96263.94
2019-03-17T20:59:22.748Z,96293.34
2019-03-17T21:01:54.261Z,96296.48
2019-03-17T21:04:25.516Z,96310.19
2019-03-17T21:06:56.775Z,96333.63
2019-03-17T21:09:28.113Z,96335.87
2019-03-17T21:11:59.376Z,96330.98
2019-03-17T21:14:30.362Z,96341.53
2019-03-17T21:17:02.001Z,96331.38
2019-03-17T21:19:33.041Z,96329.92
2019-03-17T21:22:04.067Z,96324.52
2019-03-17T21:24:35.061Z,96331.56
2019-03-17T21:27:06.262Z,96351.05
2019-03-17T21:29:37.618Z,96337.15
2019-03-17T21:32:08.643Z,96329.24
2019-03-17T21:34:39.643Z,96330.36
2019-03-17T21:37:10.714Z,96333.84
2019-03-17T21:39:41.962Z,96347.02
2019-03-17T21:42:13.016Z,96352.22
2019-03-17T21:44:44.473Z,96343.77
2019-03-17T21:47:15.694Z,96343.25
2019-03-17T21:49:47.094Z,96346.17
2019-03-17T21:52:18.213Z,96355.63
2019-03-17T21:54:49.838Z,96370.73
2019-03-17T21:57:20.795Z,96374.56
2019-03-17T21:59:51.780Z,96380.87
2019-03-17T22:02:22.743Z,96374.80
2019-03-17T22:04:54.314Z,96386.03
2019-03-17T22:07:25.694Z,96385.34
2019-03-17T22:09:57.433Z,96381.81
2019-03-17T22:12:28.482Z,96372.32
2019-03-17T22:15:00.368Z,96381.08
2019-03-17T22:17:32.075Z,96380.89
2019-03-17T22:20:03.150Z,96387.34
2019-03-17T22:22:35.990Z,96387.67
2019-03-17T22:25:07.761Z,96394.30
2019-03-17T22:27:38.750Z,96388.89
2019-03-17T22:30:11.698Z,96393.59
2019-03-17T22:32:42.779Z,96387.09
2019-03-17T22:35:14.182Z,96387.05
2019-03-17T22:37:45.503Z,96396.06
2019-03-17T22:40:16.618Z,96400.96
2019-03-17T22:42:48.090Z,96402.46
2019-03-17T22:45:20.398Z,96409.86
2019-03-17T22:47:51.834Z,96413.82
2019-03-17T22:50:22.899Z,96407.50
2019-03-17T22:52:54.130Z,96416.10
2019-03-17T22:55:25.359Z,96422.23
2019-03-17T22:57:59.099Z,96421.27
2019-03-17T23:00:45.892Z,96419.28
2019-03-17T23:03:17.155Z,96420.63
2019-03-17T23:05:48.208Z,96428.03
2019-03-17T23:08:20.253Z,96424.77
2019-03-17T23:10:51.228Z,96428.89
2019-03-17T23:13:22.556Z,96426.34
2019-03-17T23:15:53.601Z,96421.26
2019-03-17T23:18:24.625Z,96427.39
2019-03-17T23:20:55.714Z,96432.44
2019-03-17T23:23:26.993Z,96442.50
2019-03-17T23:25:57.999Z,96433.90
2019-03-17T23:28:29.014Z,96428.28
2019-03-17T23:31:00.090Z,96431.09
2019-03-17T23:33:32.289Z,96433.15
2019-03-17T23:36:03.358Z,96433.86
2019-03-17T23:38:34.408Z,96431.84
2019-03-17T23:41:05.422Z,96443.84
2019-03-17T23:43:36.969Z,96444.58
2019-03-17T23:46:08.020Z,96435.54
2019-03-17T23:48:39.399Z,96441.08
2019-03-17T23:51:10.614Z,96454.16
2019-03-17T23:53:41.657Z,96452.64
2019-03-17T23:56:12.684Z,96455.68
2019-03-17T23:58:43.770Z,96451.26
